createdAt,value
2022-08-11T00:00:22.389Z,25
2022-08-11T00:05:34.665Z,25
2022-08-11T00:10:52.456Z,25
2022-08-11T00:16:08.476Z,25
2022-08-11T00:22:06.229Z,25
2022-08-11T00:27:14.967Z,24
2022-08-11T00:32:26.606Z,24
2022-08-11T00:37:39.094Z,24
2022-08-11T00:42:51.557Z,24
2022-08-11T00:48:03.667Z,24
2022-08-11T00:53:19.285Z,24
2022-08-11T00:58:35.266Z,24
2022-08-11T01:03:50.216Z,24
2022-08-11T01:09:02.447Z,24
2022-08-11T01:14:14.628Z,23
2022-08-11T01:19:26.887Z,24
2022-08-11T01:24:38.955Z,24
2022-08-11T01:29:51.215Z,23
2022-08-11T01:35:03.384Z,24
2022-08-11T01:40:15.666Z,24
2022-08-11T01:45:28.226Z,24
2022-08-11T01:50:40.466Z,23
2022-08-11T01:55:52.705Z,24
2022-08-11T02:01:05.842Z,24
2022-08-11T02:06:18.196Z,23
2022-08-11T02:11:30.597Z,24
2022-08-11T02:16:52.875Z,24
2022-08-11T02:22:05.975Z,24
2022-08-11T02:27:18.160Z,24
2022-08-11T02:32:31.841Z,24
2022-08-11T02:37:43.496Z,24
2022-08-11T02:42:55.697Z,24
2022-08-11T02:48:08.106Z,24
2022-08-11T02:53:20.436Z,24
2022-08-11T02:58:32.886Z,24
2022-08-11T03:03:45.186Z,24
2022-08-11T03:08:58.147Z,24
2022-08-11T03:14:10.446Z,24
2022-08-11T03:19:22.667Z,24
2022-08-11T03:24:35.016Z,24
2022-08-11T03:29:47.375Z,24
2022-08-11T03:34:59.517Z,24
2022-08-11T03:40:11.917Z,24
2022-08-11T03:45:24.245Z,24
2022-08-11T03:50:36.754Z,25
2022-08-11T03:55:49.027Z,24
2022-08-11T04:01:01.136Z,24
2022-08-11T04:06:13.447Z,24
2022-08-11T04:11:25.647Z,24
2022-08-11T04:16:37.907Z,25
2022-08-11T04:21:50.208Z,25
2022-08-11T04:27:13.264Z,25
2022-08-11T04:32:27.658Z,25
2022-08-11T04:37:39.917Z,25
2022-08-11T04:42:52.217Z,25
2022-08-11T04:48:05.539Z,25
2022-08-11T04:53:17.710Z,25
2022-08-11T04:58:31.965Z,25
2022-08-11T05:03:43.962Z,25
2022-08-11T05:08:56.400Z,25
2022-08-11T05:14:08.851Z,25
2022-08-11T05:19:21.431Z,25
2022-08-11T05:24:33.771Z,25
2022-08-11T05:29:46.281Z,25
2022-08-11T05:34:58.762Z,25
2022-08-11T05:40:11.620Z,25
2022-08-11T05:45:24.162Z,25
2022-08-11T05:50:39.282Z,25
2022-08-11T05:56:04.376Z,25
2022-08-11T06:01:14.586Z,25
2022-08-11T06:06:27.090Z,25
2022-08-11T06:11:45.440Z,25
2022-08-11T06:16:59.873Z,26
2022-08-11T06:22:12.272Z,26
2022-08-11T06:27:24.782Z,26
2022-08-11T06:32:37.993Z,26
2022-08-11T06:37:59.741Z,26
2022-08-11T06:43:13.730Z,26
2022-08-11T06:48:26.022Z,26
2022-08-11T06:53:38.711Z,27
2022-08-11T06:58:51.408Z,27
2022-08-11T07:04:04.171Z,27
2022-08-11T07:09:16.760Z,27
2022-08-11T07:14:29.321Z,27
2022-08-11T07:19:47.851Z,27
2022-08-11T07:25:04.160Z,28
2022-08-11T07:30:17.721Z,28
2022-08-11T07:35:30.230Z,28
2022-08-11T07:40:42.841Z,28
2022-08-11T07:45:55.522Z,28
2022-08-11T07:51:08.031Z,28
2022-08-11T07:57:09.566Z,28
2022-08-11T08:03:24.322Z,28
2022-08-11T08:08:36.521Z,28
2022-08-11T08:13:51.062Z,28
2022-08-11T08:19:03.030Z,29
2022-08-11T08:29:25.730Z,29
2022-08-11T08:34:38.351Z,29
2022-08-11T08:39:51.260Z,29
2022-08-11T08:45:05.302Z,29
2022-08-11T08:50:17.674Z,29
2022-08-11T08:55:29.991Z,29
2022-08-11T09:00:42.258Z,28
2022-08-11T09:05:54.581Z,29
2022-08-11T09:16:17.793Z,29
2022-08-11T09:21:50.181Z,29
2022-08-11T09:26:59.188Z,29
2022-08-11T09:32:11.551Z,29
2022-08-11T09:37:56.946Z,29
2022-08-11T09:43:05.873Z,29
2022-08-11T09:48:18.313Z,29
2022-08-11T09:53:41.612Z,29
2022-08-11T09:59:11.513Z,30
2022-08-11T10:04:23.813Z,30
2022-08-11T10:09:36.424Z,30
2022-08-11T10:14:49.092Z,30
2022-08-11T10:20:06.508Z,30
2022-08-11T10:25:20.534Z,30
2022-08-11T10:30:32.514Z,30
2022-08-11T10:35:45.012Z,30
2022-08-11T10:40:58.001Z,30
2022-08-11T10:46:10.511Z,31
2022-08-11T10:51:54.074Z,31
2022-08-11T11:02:37.190Z,31
2022-08-11T11:07:49.548Z,32
2022-08-11T11:13:02.338Z,32
2022-08-11T11:18:15.018Z,32
2022-08-11T11:23:27.732Z,32
2022-08-11T11:28:40.991Z,34
2022-08-11T11:34:13.320Z,36
2022-08-11T11:39:23.885Z,37
2022-08-11T11:44:37.241Z,37
2022-08-11T11:49:50.723Z,38
2022-08-11T12:00:15.167Z,38
2022-08-11T12:05:27.858Z,39
2022-08-11T12:21:03.338Z,39
2022-08-11T12:26:27.977Z,39
2022-08-11T12:31:41.158Z,38
2022-08-11T12:36:53.238Z,38
2022-08-11T12:47:16.129Z,35
2022-08-11T13:02:49.974Z,36
2022-08-11T13:08:02.695Z,37
2022-08-11T13:18:26.161Z,38
2022-08-11T13:23:38.725Z,37
2022-08-11T13:28:51.628Z,38
2022-08-11T13:49:36.150Z,36
2022-08-11T14:10:25.798Z,35
2022-08-11T14:15:38.660Z,35
2022-08-11T14:20:51.231Z,36
2022-08-11T14:36:25.946Z,35
2022-08-11T14:42:13.587Z,35
2022-08-11T14:47:26.012Z,35
2022-08-11T14:52:41.245Z,35
2022-08-11T14:57:57.657Z,35
2022-08-11T15:03:09.141Z,35
2022-08-11T15:08:21.303Z,35
2022-08-11T15:18:44.279Z,35
2022-08-11T15:23:56.779Z,35
2022-08-11T15:39:30.453Z,35
2022-08-11T15:45:04.742Z,35
2022-08-11T15:50:20.054Z,35
2022-08-11T15:55:43.731Z,35
2022-08-11T16:01:09.725Z,35
2022-08-11T16:06:24.376Z,35
2022-08-11T16:11:38.510Z,35
2022-08-11T16:43:12.169Z,33
2022-08-11T16:48:39.631Z,32
2022-08-11T16:54:06.702Z,32
2022-08-11T16:59:18.477Z,32
2022-08-11T17:04:32.234Z,32
2022-08-11T17:14:53.807Z,31
2022-08-11T17:20:44.506Z,31
2022-08-11T17:26:05.083Z,31
2022-08-11T17:31:23.454Z,31
2022-08-11T17:36:33.619Z,31
2022-08-11T17:46:55.889Z,31
2022-08-11T17:57:21.869Z,31
2022-08-11T18:02:40.467Z,31
2022-08-11T18:07:56.867Z,30
2022-08-11T18:18:20.086Z,30
2022-08-11T18:23:47.590Z,30
2022-08-11T18:28:56.614Z,30
2022-08-11T18:34:08.958Z,29
2022-08-11T18:39:21.562Z,29
2022-08-11T18:44:33.898Z,29
2022-08-11T18:50:05.831Z,29
2022-08-11T18:55:14.511Z,29
2022-08-11T19:06:41.454Z,28
2022-08-11T19:11:47.560Z,28
2022-08-11T19:17:00.688Z,28
2022-08-11T19:22:12.598Z,28
2022-08-11T19:27:24.813Z,28
2022-08-11T19:32:37.046Z,28
2022-08-11T19:37:49.818Z,28
2022-08-11T19:43:01.829Z,27
2022-08-11T19:48:32.921Z,27
2022-08-11T19:53:41.758Z,27
2022-08-11T19:58:53.650Z,27
2022-08-11T20:04:05.784Z,27
2022-08-11T20:09:17.798Z,27
2022-08-11T20:14:29.901Z,27
2022-08-11T20:19:57.390Z,26
2022-08-11T20:25:06.919Z,26
2022-08-11T20:30:18.925Z,26
2022-08-11T20:35:30.838Z,26
2022-08-11T20:40:42.873Z,26
2022-08-11T20:45:58.672Z,26
2022-08-11T20:51:17.087Z,26
2022-08-11T20:56:30.671Z,26
2022-08-11T21:01:44.482Z,25
2022-08-11T21:06:58.753Z,25
2022-08-11T21:12:14.612Z,25
2022-08-11T21:17:28.798Z,25
2022-08-11T21:23:06.353Z,25
2022-08-11T21:28:15.095Z,25
2022-08-11T21:33:27.010Z,25
2022-08-11T21:38:39.028Z,25
2022-08-11T21:43:51.144Z,25
2022-08-11T21:49:03.090Z,24
2022-08-11T21:54:14.950Z,24
2022-08-11T21:59:27.101Z,24
2022-08-11T22:04:39.207Z,24
2022-08-11T22:09:51.453Z,24
2022-08-11T22:15:03.664Z,24
2022-08-11T22:20:15.808Z,24
2022-08-11T22:25:54.356Z,24
2022-08-11T22:31:18.427Z,24
2022-08-11T22:36:30.569Z,25
2022-08-11T22:41:43.124Z,25
2022-08-11T22:46:56.197Z,25
2022-08-11T22:52:07.976Z,25
2022-08-11T22:57:20.092Z,25
2022-08-11T23:02:32.258Z,25
2022-08-11T23:07:52.441Z,25
2022-08-11T23:13:07.699Z,25
2022-08-11T23:18:20.220Z,24
2022-08-11T23:23:32.702Z,24
2022-08-11T23:28:44.593Z,24
2022-08-11T23:33:56.644Z,24
2022-08-11T23:39:08.903Z,24
2022-08-11T23:44:21.100Z,23
2022-08-11T23:49:33.046Z,23
2022-08-11T23:54:45.308Z,23
2022-08-11T23:59:57.452Z,23
